Terminal Aerodrome Forecast
Issued by NWS

Home | Current Version | Previous Version | Graphics & Text | Print | Product List | Glossary On
Versions: 1 2 3 4 5 6 7 8 9 10 11 12 13 14 15 16 17
000
FTUS43 KGRB 291023 AAA
TAFAUW
TAF AMD
KAUW 291023Z 2910/3006 22007KT P6SM SCT010 BKN050
      TEMPO 2910/2914 4SM -SHRA BR BKN010
     FM291400 24006KT 5SM -SHRA OVC015
     FM291800 26011KT P6SM -SHRA BKN025
     FM292000 26012KT P6SM VCSH BKN035
     FM300000 28009KT P6SM SCT050
     FM300200 27006KT P6SM SCT150=

USA.gov is the U.S. government's official web portal to all federal, state and local government web resources and services.